RJNY  Shizuhama  Airport

Japan

Add Bookmark
Status
Operational
Latitude Longitude
34° 48' 46" N 138° 17' 52" E
34.812801 138.298004
Local (DST + 9) UTC (GMT + 9)
Mar 30, 2015 08:44 Mar 29, 2015 23:44
Sunrise-Sunset Local UTC
Begin Civil Twilight 05:10 20:10
Sunrise 05:35 20:35
Sunset 06:06 09:06
End Civil Twilight 06:32 09:32

Current Weather

METAR Observed MVFR
RJNY 291241Z VRB02KT 8000 R27/0650VP1800N MIFG FEW025 09/09 Q1013 Sun, Mar 29, 2015 @ 12:41 UTC
(11 Hours, 3 Minutes ago)
Marginal Visual Flight Rules
Wind Visibility Clouds Conditions
Varies at 2 knots (4 kph) 8000 meters
  • Few at 2,500' AGL
  • Shallow Fog
Temperatures Readings Precipitation
Current Temp 9°C (48°F)
Dewpoint 9°C (48°F)
Humidity 100%
Altimeter 29.91"Hg
Sea Level Pressure 1013mb
Field Elevation 32.81'
None Recorded

Additional weather within a 92.6km radius of RJNY

Map ICAO Location
rjns 10.2km W (259°)
RJAT 76.7km N (043°)

24 Hour Weather History

Loading
-

24 Hour Weather Graphs

Loading
-

CheckWX.com is intended as a tool to help pilots better visualize weather data. It is not intended as a substitute for an official weather briefing obtained from a Flight Service Station. CheckWX.com does not meet the FAA requirements for an official pre-flight weather briefing. Therefore, it's important that pilots still call and obtain an official FSS pre-flight weather briefing.